sensor_id;sensor_type;location;lat;lon;timestamp;pressure;altitude;pressure_sealevel;temperature;humidity
56334;BME280;42240;53.626;55.886;2022-11-20T00:00:04;78952.13;;;-145.10;100.00
56334;BME280;42240;53.626;55.886;2022-11-20T00:01:38;78948.16;;;-145.10;100.00
56334;BME280;42240;53.626;55.886;2022-11-20T00:03:12;78938.28;;;-145.10;100.00
56334;BME280;42240;53.626;55.886;2022-11-20T00:04:45;78938.28;;;-145.10;100.00
56334;BME280;42240;53.626;55.886;2022-11-20T00:06:19;78930.34;;;-145.10;100.00
56334;BME280;42240;53.626;55.886;2022-11-20T00:07:52;78930.34;;;-145.10;100.00
56334;BME280;42240;53.626;55.886;2022-11-20T00:09:25;78928.38;;;-145.10;100.00
56334;BME280;42240;53.626;55.886;2022-11-20T00:11:09;78930.34;;;-145.10;100.00
56334;BME280;42240;53.626;55.886;2022-11-20T00:12:47;78924.41;;;-145.10;100.00
56334;BME280;42240;53.626;55.886;2022-11-20T00:14:20;78930.34;;;-145.10;100.00
56334;BME280;42240;53.626;55.886;2022-11-20T00:16:03;78926.41;;;-145.10;100.00
56334;BME280;42240;53.626;55.886;2022-11-20T00:17:36;78930.34;;;-145.10;100.00
56334;BME280;42240;53.626;55.886;2022-11-20T00:19:09;78930.34;;;-145.10;100.00
56334;BME280;42240;53.626;55.886;2022-11-20T00:20:42;78926.41;;;-145.10;100.00
56334;BME280;42240;53.626;55.886;2022-11-20T00:22:15;78920.47;;;-145.10;100.00
56334;BME280;42240;53.626;55.886;2022-11-20T00:23:49;78922.44;;;-145.10;100.00
56334;BME280;42240;53.626;55.886;2022-11-20T00:25:23;78918.50;;;-145.10;100.00
56334;BME280;42240;53.626;55.886;2022-11-20T00:26:56;78918.50;;;-145.10;100.00
56334;BME280;42240;53.626;55.886;2022-11-20T00:28:29;78910.56;;;-145.10;100.00
56334;BME280;42240;53.626;55.886;2022-11-20T00:30:03;78920.47;;;-145.10;100.00
56334;BME280;42240;53.626;55.886;2022-11-20T00:31:36;78922.44;;;-145.10;100.00
56334;BME280;42240;53.626;55.886;2022-11-20T00:33:09;78930.34;;;-145.10;100.00
56334;BME280;42240;53.626;55.886;2022-11-20T00:34:42;78930.34;;;-145.10;100.00
56334;BME280;42240;53.626;55.886;2022-11-20T00:36:21;78932.34;;;-145.10;100.00
56334;BME280;42240;53.626;55.886;2022-11-20T00:37:54;78940.25;;;-145.10;100.00
56334;BME280;42240;53.626;55.886;2022-11-20T00:39:27;78946.19;;;-145.10;100.00
56334;BME280;42240;53.626;55.886;2022-11-20T00:41:04;78948.16;;;-145.10;100.00
56334;BME280;42240;53.626;55.886;2022-11-20T00:42:38;78952.13;;;-145.10;100.00
56334;BME280;42240;53.626;55.886;2022-11-20T00:44:11;78960.03;;;-145.10;100.00
56334;BME280;42240;53.626;55.886;2022-11-20T00:45:44;78965.97;;;-145.10;100.00
56334;BME280;42240;53.626;55.886;2022-11-20T00:47:17;78971.91;;;-145.10;100.00
56334;BME280;42240;53.626;55.886;2022-11-20T00:48:50;78969.94;;;-145.10;100.00
56334;BME280;42240;53.626;55.886;2022-11-20T00:50:23;78981.81;;;-145.10;100.00
56334;BME280;42240;53.626;55.886;2022-11-20T00:51:56;78979.81;;;-145.10;100.00
56334;BME280;42240;53.626;55.886;2022-11-20T00:53:29;78983.78;;;-145.10;100.00
56334;BME280;42240;53.626;55.886;2022-11-20T00:55:02;78987.72;;;-145.10;100.00
56334;BME280;42240;53.626;55.886;2022-11-20T00:56:35;78983.78;;;-145.10;100.00
56334;BME280;42240;53.626;55.886;2022-11-20T00:58:08;78997.63;;;-145.10;100.00
56334;BME280;42240;53.626;55.886;2022-11-20T00:59:45;78991.69;;;-145.10;100.00
56334;BME280;42240;53.626;55.886;2022-11-20T01:01:20;78995.66;;;-145.10;100.00
56334;BME280;42240;53.626;55.886;2022-11-20T01:02:55;79001.59;;;-145.10;100.00
56334;BME280;42240;53.626;55.886;2022-11-20T01:04:29;78999.59;;;-145.10;100.00
56334;BME280;42240;53.626;55.886;2022-11-20T01:06:07;78997.63;;;-145.10;100.00
56334;BME280;42240;53.626;55.886;2022-11-20T01:07:41;79001.59;;;-145.10;100.00
56334;BME280;42240;53.626;55.886;2022-11-20T01:09:14;78987.72;;;-145.10;100.00
56334;BME280;42240;53.626;55.886;2022-11-20T01:10:48;78989.72;;;-145.10;100.00
56334;BME280;42240;53.626;55.886;2022-11-20T01:12:21;78977.84;;;-145.10;100.00
56334;BME280;42240;53.626;55.886;2022-11-20T01:13:54;78971.91;;;-145.10;100.00
56334;BME280;42240;53.626;55.886;2022-11-20T01:15:28;78971.91;;;-145.10;100.00
56334;BME280;42240;53.626;55.886;2022-11-20T01:17:01;78965.97;;;-145.10;100.00
56334;BME280;42240;53.626;55.886;2022-11-20T01:18:35;78969.94;;;-145.10;100.00
56334;BME280;42240;53.626;55.886;2022-11-20T01:20:09;78964.00;;;-145.10;100.00
56334;BME280;42240;53.626;55.886;2022-11-20T01:21:44;78977.84;;;-145.10;100.00
56334;BME280;42240;53.626;55.886;2022-11-20T01:23:17;78981.81;;;-145.10;100.00
56334;BME280;42240;53.626;55.886;2022-11-20T01:24:50;78981.81;;;-145.10;100.00
56334;BME280;42240;53.626;55.886;2022-11-20T01:26:26;78975.88;;;-145.10;100.00
56334;BME280;42240;53.626;55.886;2022-11-20T01:27:59;78971.91;;;-145.10;100.00
56334;BME280;42240;53.626;55.886;2022-11-20T01:29:32;78973.88;;;-145.10;100.00
56334;BME280;42240;53.626;55.886;2022-11-20T01:31:20;78981.81;;;-145.10;100.00
56334;BME280;42240;53.626;55.886;2022-11-20T01:32:55;78981.81;;;-145.10;100.00
56334;BME280;42240;53.626;55.886;2022-11-20T01:34:28;78979.81;;;-145.10;100.00
56334;BME280;42240;53.626;55.886;2022-11-20T01:36:05;78983.78;;;-145.10;100.00
56334;BME280;42240;53.626;55.886;2022-11-20T01:37:38;78991.69;;;-145.10;100.00
56334;BME280;42240;53.626;55.886;2022-11-20T01:39:17;78999.59;;;-145.10;100.00
56334;BME280;42240;53.626;55.886;2022-11-20T01:40:55;79005.53;;;-145.10;100.00
56334;BME280;42240;53.626;55.886;2022-11-20T01:42:29;79001.59;;;-145.10;100.00
56334;BME280;42240;53.626;55.886;2022-11-20T01:46:19;78997.63;;;-145.10;100.00
56334;BME280;42240;53.626;55.886;2022-11-20T01:47:52;79001.59;;;-145.10;100.00
56334;BME280;42240;53.626;55.886;2022-11-20T01:49:40;79007.53;;;-145.10;100.00
56334;BME280;42240;53.626;55.886;2022-11-20T01:51:39;79005.53;;;-145.10;100.00
56334;BME280;42240;53.626;55.886;2022-11-20T01:53:16;79005.53;;;-145.10;100.00
56334;BME280;42240;53.626;55.886;2022-11-20T01:55:12;79009.50;;;-145.10;100.00
56334;BME280;42240;53.626;55.886;2022-11-20T01:56:47;79013.47;;;-145.10;100.00
56334;BME280;42240;53.626;55.886;2022-11-20T01:58:28;79019.41;;;-145.10;100.00
56334;BME280;42240;53.626;55.886;2022-11-20T02:00:10;79025.31;;;-145.10;100.00
56334;BME280;42240;53.626;55.886;2022-11-20T02:01:43;79037.19;;;-145.10;100.00
56334;BME280;42240;53.626;55.886;2022-11-20T02:03:19;79051.06;;;-145.10;100.00
56334;BME280;42240;53.626;55.886;2022-11-20T02:04:54;79064.91;;;-145.10;100.00
56334;BME280;42240;53.626;55.886;2022-11-20T02:06:32;79106.44;;;-145.10;100.00
56334;BME280;42240;53.626;55.886;2022-11-20T02:08:07;79088.66;;;-145.10;100.00
56334;BME280;42240;53.626;55.886;2022-11-20T02:09:40;79104.47;;;-145.10;100.00
56334;BME280;42240;53.626;55.886;2022-11-20T02:11:13;79112.38;;;-145.10;100.00
56334;BME280;42240;53.626;55.886;2022-11-20T02:12:47;79124.25;;;-145.10;100.00
56334;BME280;42240;53.626;55.886;2022-11-20T02:14:39;79132.19;;;-145.10;100.00
56334;BME280;42240;53.626;55.886;2022-11-20T02:16:22;79140.09;;;-145.10;100.00
56334;BME280;42240;53.626;55.886;2022-11-20T02:17:56;79155.91;;;-145.10;100.00
56334;BME280;42240;53.626;55.886;2022-11-20T02:19:31;79159.88;;;-145.10;100.00
56334;BME280;42240;53.626;55.886;2022-11-20T02:23:31;79163.84;;;-145.10;100.00
56334;BME280;42240;53.626;55.886;2022-11-20T02:25:07;79167.78;;;-145.10;100.00
56334;BME280;42240;53.626;55.886;2022-11-20T02:26:54;79167.78;;;-145.10;100.00
56334;BME280;42240;53.626;55.886;2022-11-20T02:28:27;79171.75;;;-145.10;100.00
56334;BME280;42240;53.626;55.886;2022-11-20T02:30:02;79173.72;;;-145.10;100.00
56334;BME280;42240;53.626;55.886;2022-11-20T02:31:38;79179.66;;;-145.10;100.00
56334;BME280;42240;53.626;55.886;2022-11-20T02:33:12;79187.56;;;-145.10;100.00
56334;BME280;42240;53.626;55.886;2022-11-20T02:34:46;79183.63;;;-145.10;100.00
56334;BME280;42240;53.626;55.886;2022-11-20T02:36:18;79183.63;;;-145.10;100.00
56334;BME280;42240;53.626;55.886;2022-11-20T02:37:52;79189.56;;;-145.10;100.00
56334;BME280;42240;53.626;55.886;2022-11-20T02:39:27;79199.44;;;-145.10;100.00
56334;BME280;42240;53.626;55.886;2022-11-20T02:41:01;79205.38;;;-145.10;100.00
56334;BME280;42240;53.626;55.886;2022-11-20T02:42:35;79201.44;;;-145.10;100.00
56334;BME280;42240;53.626;55.886;2022-11-20T02:44:08;79207.38;;;-145.10;100.00
56334;BME280;42240;53.626;55.886;2022-11-20T02:45:41;79211.31;;;-145.10;100.00
56334;BME280;42240;53.626;55.886;2022-11-20T02:47:14;79211.31;;;-145.10;100.00
56334;BME280;42240;53.626;55.886;2022-11-20T02:48:47;79201.44;;;-145.10;100.00
56334;BME280;42240;53.626;55.886;2022-11-20T02:50:20;79203.41;;;-145.10;100.00
56334;BME280;42240;53.626;55.886;2022-11-20T02:51:53;79205.38;;;-145.10;100.00
56334;BME280;42240;53.626;55.886;2022-11-20T02:53:26;79201.44;;;-145.10;100.00
56334;BME280;42240;53.626;55.886;2022-11-20T02:54:59;79195.50;;;-145.10;100.00
56334;BME280;42240;53.626;55.886;2022-11-20T02:56:34;79195.50;;;-145.10;100.00
56334;BME280;42240;53.626;55.886;2022-11-20T02:58:07;79199.44;;;-145.10;100.00
56334;BME280;42240;53.626;55.886;2022-11-20T02:59:40;79191.53;;;-145.10;100.00
56334;BME280;42240;53.626;55.886;2022-11-20T03:01:13;79185.59;;;-145.10;100.00
56334;BME280;42240;53.626;55.886;2022-11-20T03:02:46;79193.50;;;-145.10;100.00
56334;BME280;42240;53.626;55.886;2022-11-20T03:04:19;79179.66;;;-145.10;100.00
56334;BME280;42240;53.626;55.886;2022-11-20T03:05:53;79181.63;;;-145.10;100.00
56334;BME280;42240;53.626;55.886;2022-11-20T03:07:25;79171.75;;;-145.10;100.00
56334;BME280;42240;53.626;55.886;2022-11-20T03:08:58;79167.78;;;-145.10;100.00
56334;BME280;42240;53.626;55.886;2022-11-20T03:10:31;79163.84;;;-145.10;100.00
56334;BME280;42240;53.626;55.886;2022-11-20T03:12:05;79155.91;;;-145.10;100.00
56334;BME280;42240;53.626;55.886;2022-11-20T03:13:38;79151.97;;;-145.10;100.00
56334;BME280;42240;53.626;55.886;2022-11-20T03:15:11;79179.66;;;-145.10;100.00
56334;BME280;42240;53.626;55.886;2022-11-20T03:16:44;79148.00;;;-145.10;100.00
56334;BME280;42240;53.626;55.886;2022-11-20T03:18:17;79153.94;;;-145.10;100.00
56334;BME280;42240;53.626;55.886;2022-11-20T03:19:50;79144.03;;;-145.10;100.00
56334;BME280;42240;53.626;55.886;2022-11-20T03:21:23;79159.88;;;-145.10;100.00
56334;BME280;42240;53.626;55.886;2022-11-20T03:22:56;79151.97;;;-145.10;100.00
56334;BME280;42240;53.626;55.886;2022-11-20T03:24:29;79149.97;;;-145.10;100.00
56334;BME280;42240;53.626;55.886;2022-11-20T03:26:14;79146.03;;;-145.10;100.00
56334;BME280;42240;53.626;55.886;2022-11-20T03:27:47;79144.03;;;-145.10;100.00
56334;BME280;42240;53.626;55.886;2022-11-20T03:29:20;79148.00;;;-145.10;100.00
56334;BME280;42240;53.626;55.886;2022-11-20T03:30:54;79144.03;;;-145.10;100.00
56334;BME280;42240;53.626;55.886;2022-11-20T03:32:27;79144.03;;;-145.10;100.00
56334;BME280;42240;53.626;55.886;2022-11-20T03:34:00;79148.00;;;-145.10;100.00
56334;BME280;42240;53.626;55.886;2022-11-20T03:35:34;79155.91;;;-145.10;100.00
56334;BME280;42240;53.626;55.886;2022-11-20T03:37:07;79157.91;;;-145.10;100.00
56334;BME280;42240;53.626;55.886;2022-11-20T03:38:40;79163.84;;;-145.10;100.00
56334;BME280;42240;53.626;55.886;2022-11-20T03:40:13;79171.75;;;-145.10;100.00
56334;BME280;42240;53.626;55.886;2022-11-20T03:41:46;79175.72;;;-145.10;100.00
56334;BME280;42240;53.626;55.886;2022-11-20T03:43:19;79179.66;;;-145.10;100.00
56334;BME280;42240;53.626;55.886;2022-11-20T03:44:52;79175.72;;;-145.10;100.00
56334;BME280;42240;53.626;55.886;2022-11-20T03:46:26;79217.25;;;-145.10;100.00
56334;BME280;42240;53.626;55.886;2022-11-20T03:47:59;79175.72;;;-145.10;100.00
56334;BME280;42240;53.626;55.886;2022-11-20T03:49:33;79175.72;;;-145.10;100.00
56334;BME280;42240;53.626;55.886;2022-11-20T03:51:11;79183.63;;;-145.10;100.00
56334;BME280;42240;53.626;55.886;2022-11-20T03:52:44;79185.59;;;-145.10;100.00
56334;BME280;42240;53.626;55.886;2022-11-20T03:54:17;79193.50;;;-145.10;100.00
56334;BME280;42240;53.626;55.886;2022-11-20T03:55:51;79215.28;;;-145.10;100.00
56334;BME280;42240;53.626;55.886;2022-11-20T03:57:24;79217.25;;;-145.10;100.00
56334;BME280;42240;53.626;55.886;2022-11-20T03:58:57;79219.25;;;-145.10;100.00
56334;BME280;42240;53.626;55.886;2022-11-20T04:00:31;79213.31;;;-145.10;100.00
56334;BME280;42240;53.626;55.886;2022-11-20T04:02:04;79215.28;;;-145.10;100.00
56334;BME280;42240;53.626;55.886;2022-11-20T04:03:38;79211.31;;;-145.10;100.00
56334;BME280;42240;53.626;55.886;2022-11-20T04:05:12;79215.28;;;-145.10;100.00
56334;BME280;42240;53.626;55.886;2022-11-20T04:06:44;79227.16;;;-145.10;100.00
56334;BME280;42240;53.626;55.886;2022-11-20T04:08:18;79213.31;;;-145.10;100.00
56334;BME280;42240;53.626;55.886;2022-11-20T04:09:50;79219.25;;;-145.10;100.00
56334;BME280;42240;53.626;55.886;2022-11-20T04:11:28;79215.28;;;-145.10;100.00
56334;BME280;42240;53.626;55.886;2022-11-20T04:13:01;79205.38;;;-145.10;100.00
56334;BME280;42240;53.626;55.886;2022-11-20T04:14:35;79203.41;;;-145.10;100.00
56334;BME280;42240;53.626;55.886;2022-11-20T04:16:09;79187.56;;;-145.10;100.00
56334;BME280;42240;53.626;55.886;2022-11-20T04:17:42;79179.66;;;-145.10;100.00
56334;BME280;42240;53.626;55.886;2022-11-20T04:19:16;79175.72;;;-145.10;100.00
56334;BME280;42240;53.626;55.886;2022-11-20T04:20:49;79183.63;;;-145.10;100.00
56334;BME280;42240;53.626;55.886;2022-11-20T04:22:22;79189.56;;;-145.10;100.00
56334;BME280;42240;53.626;55.886;2022-11-20T04:23:55;79191.53;;;-145.10;100.00
56334;BME280;42240;53.626;55.886;2022-11-20T04:25:29;79209.34;;;-145.10;100.00
56334;BME280;42240;53.626;55.886;2022-11-20T04:27:02;79246.94;;;-145.10;100.00
56334;BME280;42240;53.626;55.886;2022-11-20T04:28:35;79270.69;;;-145.10;100.00
56334;BME280;42240;53.626;55.886;2022-11-20T04:30:08;79337.97;;;-145.10;100.00
56334;BME280;42240;53.626;55.886;2022-11-20T04:31:41;79381.50;;;-145.10;100.00
56334;BME280;42240;53.626;55.886;2022-11-20T04:33:14;79421.06;;;-145.10;100.00
56334;BME280;42240;53.626;55.886;2022-11-20T04:34:47;79339.94;;;-145.10;100.00
56334;BME280;42240;53.626;55.886;2022-11-20T04:36:24;79146.03;;;-145.10;100.00
56334;BME280;42240;53.626;55.886;2022-11-20T04:37:58;78987.72;;;-145.10;100.00
56334;BME280;42240;53.626;55.886;2022-11-20T04:39:31;78902.66;;;-145.10;100.00
56334;BME280;42240;53.626;55.886;2022-11-20T04:41:06;78829.44;;;-145.10;100.00
56334;BME280;42240;53.626;55.886;2022-11-20T04:42:39;78718.66;;;-145.10;100.00
56334;BME280;42240;53.626;55.886;2022-11-20T04:44:12;78685.03;;;-145.10;100.00
56334;BME280;42240;53.626;55.886;2022-11-20T04:45:50;78637.53;;;-145.10;100.00
56334;BME280;42240;53.626;55.886;2022-11-20T04:47:24;78586.09;;;-145.10;100.00
56334;BME280;42240;53.626;55.886;2022-11-20T04:48:57;78601.94;;;-145.10;100.00
56334;BME280;42240;53.626;55.886;2022-11-20T04:50:30;78554.44;;;-145.10;100.00
56334;BME280;42240;53.626;55.886;2022-11-20T04:52:03;78548.50;;;-145.10;100.00
56334;BME280;42240;53.626;55.886;2022-11-20T04:53:36;78489.16;;;-145.10;100.00
56334;BME280;42240;53.626;55.886;2022-11-20T04:55:09;78463.44;;;-145.10;100.00
56334;BME280;42240;53.626;55.886;2022-11-20T04:56:42;78421.91;;;-145.10;100.00
56334;BME280;42240;53.626;55.886;2022-11-20T04:58:16;78419.94;;;-145.10;100.00
56334;BME280;42240;53.626;55.886;2022-11-20T04:59:49;78402.13;;;-145.10;100.00
56334;BME280;42240;53.626;55.886;2022-11-20T05:01:23;78344.75;;;-145.10;100.00
56334;BME280;42240;53.626;55.886;2022-11-20T05:02:56;78291.34;;;-145.10;100.00
56334;BME280;42240;53.626;55.886;2022-11-20T05:04:30;78336.84;;;-145.10;100.00
56334;BME280;42240;53.626;55.886;2022-11-20T05:06:04;78352.66;;;-145.10;100.00
56334;BME280;42240;53.626;55.886;2022-11-20T05:07:37;78461.47;;;-145.10;100.00
56334;BME280;42240;53.626;55.886;2022-11-20T05:09:12;78564.34;;;-145.10;100.00
56334;BME280;42240;53.626;55.886;2022-11-20T05:10:45;78661.28;;;-145.10;100.00
56334;BME280;42240;53.626;55.886;2022-11-20T05:12:18;78700.84;;;-145.10;100.00
56334;BME280;42240;53.626;55.886;2022-11-20T05:13:51;78643.47;;;-145.10;100.00
56334;BME280;42240;53.626;55.886;2022-11-20T05:15:25;78615.78;;;-145.10;100.00
56334;BME280;42240;53.626;55.886;2022-11-20T05:16:58;78732.50;;;-145.10;100.00
56334;BME280;42240;53.626;55.886;2022-11-20T05:18:31;78694.91;;;-145.10;100.00
56334;BME280;42240;53.626;55.886;2022-11-20T05:20:04;78770.09;;;-145.10;100.00
56334;BME280;42240;53.626;55.886;2022-11-20T05:21:37;78720.63;;;-145.10;100.00
56334;BME280;42240;53.626;55.886;2022-11-20T05:23:10;78576.22;;;-145.10;100.00
56334;BME280;42240;53.626;55.886;2022-11-20T05:24:43;78582.16;;;-145.10;100.00
56334;BME280;42240;53.626;55.886;2022-11-20T05:26:18;78588.09;;;-145.10;100.00
56334;BME280;42240;53.626;55.886;2022-11-20T05:27:51;78558.41;;;-145.10;100.00
56334;BME280;42240;53.626;55.886;2022-11-20T05:29:25;78506.97;;;-145.10;100.00
56334;BME280;42240;53.626;55.886;2022-11-20T05:31:08;78481.25;;;-145.10;100.00
56334;BME280;42240;53.626;55.886;2022-11-20T05:32:41;78431.78;;;-145.10;100.00
56334;BME280;42240;53.626;55.886;2022-11-20T05:34:13;78380.34;;;-145.10;100.00
56334;BME280;42240;53.626;55.886;2022-11-20T05:35:48;78352.66;;;-145.10;100.00
56334;BME280;42240;53.626;55.886;2022-11-20T05:37:21;78414.00;;;-145.10;100.00
56334;BME280;42240;53.626;55.886;2022-11-20T05:38:54;78463.44;;;-145.10;100.00
56334;BME280;42240;53.626;55.886;2022-11-20T05:40:33;78512.91;;;-145.10;100.00
56334;BME280;42240;53.626;55.886;2022-11-20T05:42:06;78594.03;;;-145.10;100.00
56334;BME280;42240;53.626;55.886;2022-11-20T05:43:57;78742.41;;;-145.10;100.00
56334;BME280;42240;53.626;55.886;2022-11-20T05:45:31;78756.25;;;-145.10;100.00
56334;BME280;42240;53.626;55.886;2022-11-20T05:47:05;78776.03;;;-145.10;100.00
56334;BME280;42240;53.626;55.886;2022-11-20T05:48:39;78778.00;;;-145.10;100.00
56334;BME280;42240;53.626;55.886;2022-11-20T05:50:13;78807.69;;;-145.10;100.00
56334;BME280;42240;53.626;55.886;2022-11-20T05:51:47;78752.28;;;-145.10;100.00
56334;BME280;42240;53.626;55.886;2022-11-20T05:53:20;78679.09;;;-145.10;100.00
56334;BME280;42240;53.626;55.886;2022-11-20T05:54:53;78661.28;;;-145.10;100.00
56334;BME280;42240;53.626;55.886;2022-11-20T05:56:26;78590.06;;;-145.10;100.00
56334;BME280;42240;53.626;55.886;2022-11-20T05:57:59;78580.16;;;-145.10;100.00
56334;BME280;42240;53.626;55.886;2022-11-20T05:59:32;78586.09;;;-145.10;100.00
56334;BME280;42240;53.626;55.886;2022-11-20T06:01:11;78643.47;;;-145.10;100.00
56334;BME280;42240;53.626;55.886;2022-11-20T06:02:44;78683.03;;;-145.10;100.00
56334;BME280;42240;53.626;55.886;2022-11-20T06:04:17;78694.91;;;-145.10;100.00
56334;BME280;42240;53.626;55.886;2022-11-20T06:05:50;78700.84;;;-145.10;100.00
56334;BME280;42240;53.626;55.886;2022-11-20T06:07:23;78714.69;;;-145.10;100.00
56334;BME280;42240;53.626;55.886;2022-11-20T06:08:57;78748.34;;;-145.10;100.00
56334;BME280;42240;53.626;55.886;2022-11-20T06:10:31;78712.72;;;-145.10;100.00
56334;BME280;42240;53.626;55.886;2022-11-20T06:12:05;78708.75;;;-145.10;100.00
56334;BME280;42240;53.626;55.886;2022-11-20T06:13:38;78738.44;;;-145.10;100.00
56334;BME280;42240;53.626;55.886;2022-11-20T06:15:14;78760.22;;;-145.10;100.00
56334;BME280;42240;53.626;55.886;2022-11-20T06:16:47;78783.94;;;-145.10;100.00
56334;BME280;42240;53.626;55.886;2022-11-20T06:18:20;78807.69;;;-145.10;100.00
56334;BME280;42240;53.626;55.886;2022-11-20T06:19:53;78801.75;;;-145.10;100.00
56334;BME280;42240;53.626;55.886;2022-11-20T06:21:27;78799.78;;;-145.10;100.00
56334;BME280;42240;53.626;55.886;2022-11-20T06:23:00;78807.69;;;-145.10;100.00
56334;BME280;42240;53.626;55.886;2022-11-20T06:24:33;78778.00;;;-145.10;100.00
56334;BME280;42240;53.626;55.886;2022-11-20T06:26:08;78772.06;;;-145.10;100.00
56334;BME280;42240;53.626;55.886;2022-11-20T06:27:41;78752.28;;;-145.10;100.00
56334;BME280;42240;53.626;55.886;2022-11-20T06:29:14;78738.44;;;-145.10;100.00
56334;BME280;42240;53.626;55.886;2022-11-20T06:30:47;78712.72;;;-145.10;100.00
56334;BME280;42240;53.626;55.886;2022-11-20T06:32:20;78685.03;;;-145.10;100.00
56334;BME280;42240;53.626;55.886;2022-11-20T06:33:54;78659.31;;;-145.10;100.00
56334;BME280;42240;53.626;55.886;2022-11-20T06:35:26;78637.53;;;-145.10;100.00
56334;BME280;42240;53.626;55.886;2022-11-20T06:37:00;78601.94;;;-145.10;100.00
56334;BME280;42240;53.626;55.886;2022-11-20T06:38:33;78584.13;;;-145.10;100.00
56334;BME280;42240;53.626;55.886;2022-11-20T06:40:06;78621.72;;;-145.10;100.00
56334;BME280;42240;53.626;55.886;2022-11-20T06:41:39;78613.81;;;-145.10;100.00
56334;BME280;42240;53.626;55.886;2022-11-20T06:43:12;78578.19;;;-145.10;100.00
56334;BME280;42240;53.626;55.886;2022-11-20T06:44:45;78594.03;;;-145.10;100.00
56334;BME280;42240;53.626;55.886;2022-11-20T06:46:19;78564.34;;;-145.10;100.00
56334;BME280;42240;53.626;55.886;2022-11-20T06:47:52;78560.38;;;-145.10;100.00
56334;BME280;42240;53.626;55.886;2022-11-20T06:49:25;78588.09;;;-145.10;100.00
56334;BME280;42240;53.626;55.886;2022-11-20T06:50:59;78603.91;;;-145.10;100.00
56334;BME280;42240;53.626;55.886;2022-11-20T06:52:32;78661.28;;;-145.10;100.00
56334;BME280;42240;53.626;55.886;2022-11-20T06:54:18;78649.41;;;-145.10;100.00
56334;BME280;42240;53.626;55.886;2022-11-20T06:55:52;78625.66;;;-145.10;100.00
56334;BME280;42240;53.626;55.886;2022-11-20T06:57:25;78621.72;;;-145.10;100.00
56334;BME280;42240;53.626;55.886;2022-11-20T06:58:58;78613.81;;;-145.10;100.00
56334;BME280;42240;53.626;55.886;2022-11-20T07:00:36;78594.03;;;-145.10;100.00
56334;BME280;42240;53.626;55.886;2022-11-20T07:02:12;78586.09;;;-145.10;100.00
56334;BME280;42240;53.626;55.886;2022-11-20T07:03:45;78586.09;;;-145.10;100.00
56334;BME280;42240;53.626;55.886;2022-11-20T07:05:25;78578.19;;;-145.10;100.00
56334;BME280;42240;53.626;55.886;2022-11-20T07:06:58;78613.81;;;-145.10;100.00
56334;BME280;42240;53.626;55.886;2022-11-20T07:08:31;78623.69;;;-145.10;100.00
56334;BME280;42240;53.626;55.886;2022-11-20T07:10:05;78637.53;;;-145.10;100.00
56334;BME280;42240;53.626;55.886;2022-11-20T07:11:38;78568.31;;;-145.10;100.00
56334;BME280;42240;53.626;55.886;2022-11-20T07:13:11;78578.19;;;-145.10;100.00
56334;BME280;42240;53.626;55.886;2022-11-20T07:14:44;78582.16;;;-145.10;100.00
56334;BME280;42240;53.626;55.886;2022-11-20T07:16:17;78508.94;;;-145.10;100.00
56334;BME280;42240;53.626;55.886;2022-11-20T07:17:51;78512.91;;;-145.10;100.00
56334;BME280;42240;53.626;55.886;2022-11-20T07:19:24;78447.63;;;-145.10;100.00
56334;BME280;42240;53.626;55.886;2022-11-20T07:21:01;78408.06;;;-145.10;100.00
56334;BME280;42240;53.626;55.886;2022-11-20T07:22:34;78392.22;;;-145.10;100.00
56334;BME280;42240;53.626;55.886;2022-11-20T07:24:07;78396.19;;;-145.10;100.00
56334;BME280;42240;53.626;55.886;2022-11-20T07:25:40;78429.81;;;-145.10;100.00
56334;BME280;42240;53.626;55.886;2022-11-20T07:27:13;78425.84;;;-145.10;100.00
56334;BME280;42240;53.626;55.886;2022-11-20T07:28:46;78414.00;;;-145.10;100.00
56334;BME280;42240;53.626;55.886;2022-11-20T07:30:19;78415.97;;;-145.10;100.00
56334;BME280;42240;53.626;55.886;2022-11-20T07:31:52;78388.28;;;-145.10;100.00
56334;BME280;42240;53.626;55.886;2022-11-20T07:33:25;78386.28;;;-145.10;100.00
56334;BME280;42240;53.626;55.886;2022-11-20T07:34:58;78408.06;;;-145.10;100.00
56334;BME280;42240;53.626;55.886;2022-11-20T07:36:31;78400.13;;;-145.10;100.00
56334;BME280;42240;53.626;55.886;2022-11-20T07:38:04;78423.88;;;-145.10;100.00
56334;BME280;42240;53.626;55.886;2022-11-20T07:39:38;78412.00;;;-145.10;100.00
56334;BME280;42240;53.626;55.886;2022-11-20T07:41:11;78412.00;;;-145.10;100.00
56334;BME280;42240;53.626;55.886;2022-11-20T07:42:51;78394.22;;;-145.10;100.00
56334;BME280;42240;53.626;55.886;2022-11-20T07:44:25;78414.00;;;-145.10;100.00
56334;BME280;42240;53.626;55.886;2022-11-20T07:45:58;78465.44;;;-145.10;100.00
56334;BME280;42240;53.626;55.886;2022-11-20T07:47:35;78437.72;;;-145.10;100.00
56334;BME280;42240;53.626;55.886;2022-11-20T07:49:08;78447.63;;;-145.10;100.00
56334;BME280;42240;53.626;55.886;2022-11-20T07:50:41;78419.94;;;-145.10;100.00
56334;BME280;42240;53.626;55.886;2022-11-20T07:52:14;78423.88;;;-145.10;100.00
56334;BME280;42240;53.626;55.886;2022-11-20T07:53:51;78431.78;;;-145.10;100.00
56334;BME280;42240;53.626;55.886;2022-11-20T07:55:23;78415.97;;;-145.10;100.00
56334;BME280;42240;53.626;55.886;2022-11-20T07:56:56;78414.00;;;-145.10;100.00
56334;BME280;42240;53.626;55.886;2022-11-20T07:58:30;78419.94;;;-145.10;100.00